Terminal Aerodrome Forecast
Issued by NWS Charleston, WV

Current Version | Previous Version | Graphics & Text | Print | Product List | Glossary On
Versions: 1 2 3 4 5 6 7 8 9 10 11 12 13 14 15 16 17 18 19 20 21 22
477
FTUS41 KRLX 031323 AAA
TAFHTS
TAF AMD
KHTS 031323Z 0313/0412 19008G15KT P6SM BKN025
     FM031500 21008G15KT P6SM BKN060
     FM032000 23010G16KT P6SM FEW060
     FM040700 27006KT P6SM BKN025=

USA.gov is the U.S. government's official web portal to all federal, state and local government web resources and services.